Time;durP1;ratioP1;P1;durP2;ratioP2;P2;SDS_P1;SDS_P2;PMS_P1;PMS_P2;Temp;Humidity;BMP_temperature;BMP_pressure;BME280_temperature;BME280_humidity;BME280_pressure;Samples;Min_cycle;Max_cycle;Signal;HPM_P1;HPM_P2
2023/04/30 00:00:44;;;;;;;;;;;;;;;;;;5296781;23;19910;-86
2023/04/30 00:03:35;;;;;;;;;;;;;;;;;;5000084;28;19933;-87
2023/04/30 00:06:04;;;;;;;;;;;;;;;;;;4998824;28;19913;-86
2023/04/30 00:08:35;;;;;;;;;;;;;;;;;;4998835;28;19910;-86
2023/04/30 00:14:31;;;;;;;;;;;;;;;;;;4988949;28;19925;-86
2023/04/30 00:17:16;;;;;;;;;;;;;;;;;;4980190;28;19910;-85
2023/04/30 00:19:47;;;;;;;;;;;;;;;;;;4995813;28;19910;-87
2023/04/30 00:37:53;;;;;;;;;;;;;;;;;;5811741;23;19910;-94
2023/04/30 01:26:05;;;;;;;;;;;;;;;;;;5783871;23;19934;-86
2023/04/30 01:28:31;;;;;;;;;;;;;;;;;;4949154;29;19915;-86
2023/04/30 01:30:57;;;;;;;;;;;;;;;;;;4948901;29;19935;-86
2023/04/30 01:33:23;;;;;;;;;;;;;;;;;;4964556;29;19981;-88
2023/04/30 01:35:49;;;;;;;;;;;;;;;;;;4965136;29;19922;-86
2023/04/30 01:38:15;;;;;;;;;;;;;;;;;;4949824;29;19933;-85
2023/04/30 01:40:41;;;;;;;;;;;;;;;;;;4949179;29;20340;-86
2023/04/30 01:43:07;;;;;;;;;;;;;;;;;;4949349;29;19994;-86
2023/04/30 01:45:33;;;;;;;;;;;;;;;;;;4965606;29;19922;-86
2023/04/30 01:47:59;;;;;;;;;;;;;;;;;;4949501;29;19926;-86
2023/04/30 01:50:25;;;;;;;;;;;;;;;;;;4965959;29;19946;-86
2023/04/30 01:52:51;;;;;;;;;;;;;;;;;;4950330;29;19973;-87
2023/04/30 01:55:16;;;;;;;;;;;;;;;;;;4965447;28;19922;-87
2023/04/30 01:57:42;;;;;;;;;;;;;;;;;;4949517;29;19929;-85
2023/04/30 02:00:12;;;;;;;;;;;;;;;;;;4966537;29;19922;-85
2023/04/30 02:02:41;;;;;;;;;;;;;;;;;;4954667;28;19922;-87
2023/04/30 02:20:45;;;;;;;;;;;;;;;;;;5372558;23;19933;-85
2023/04/30 02:23:11;;;;;;;;;;;;;;;;;;4947818;29;19923;-85
2023/04/30 02:25:37;;;;;;;;;;;;;;;;;;4948651;29;19950;-85
2023/04/30 02:28:03;;;;;;;;;;;;;;;;;;4957616;29;19960;-86
2023/04/30 02:30:29;;;;;;;;;;;;;;;;;;4948519;29;20556;-87
2023/04/30 02:32:55;;;;;;;;;;;;;;;;;;4948248;29;20304;-87
2023/04/30 02:35:21;;;;;;;;;;;;;;;;;;4947833;29;19946;-85
2023/04/30 02:37:47;;;;;;;;;;;;;;;;;;4964528;28;19922;-84
2023/04/30 02:40:13;;;;;;;;;;;;;;;;;;4948145;29;19968;-85
2023/04/30 02:42:39;;;;;;;;;;;;;;;;;;4954287;29;19953;-86
2023/04/30 02:45:05;;;;;;;;;;;;;;;;;;4948414;29;19930;-87
2023/04/30 02:47:31;;;;;;;;;;;;;;;;;;4948338;29;19926;-86
2023/04/30 02:49:57;;;;;;;;;;;;;;;;;;4958761;29;19922;-87
2023/04/30 02:52:41;;;;;;;;;;;;;;;;;;4963823;29;19930;-86
2023/04/30 02:55:07;;;;;;;;;;;;;;;;;;4948979;29;19926;-87
2023/04/30 02:57:33;;;;;;;;;;;;;;;;;;4964749;29;19922;-87
2023/04/30 03:05:11;;;;;;;;;;;;;;;;;;5419943;23;19911;-85
2023/04/30 03:07:42;;;;;;;;;;;;;;;;;;4979534;28;19934;-85
2023/04/30 03:10:37;;;;;;;;;;;;;;;;;;4980670;28;19930;-86
2023/04/30 03:13:03;;;;;;;;;;;;;;;;;;4974026;28;19931;-86
2023/04/30 03:15:29;;;;;;;;;;;;;;;;;;4947236;29;19923;-85
2023/04/30 03:17:55;;;;;;;;;;;;;;;;;;4947166;29;20020;-86
2023/04/30 03:20:21;;;;;;;;;;;;;;;;;;4947581;29;20388;-86
2023/04/30 03:22:47;;;;;;;;;;;;;;;;;;4947197;29;19922;-86
2023/04/30 03:25:13;;;;;;;;;;;;;;;;;;4947952;29;19926;-86
2023/04/30 03:27:39;;;;;;;;;;;;;;;;;;4947923;29;19950;-87
2023/04/30 03:30:06;;;;;;;;;;;;;;;;;;4962612;29;19922;-86
2023/04/30 03:32:31;;;;;;;;;;;;;;;;;;4946873;29;19946;-86
2023/04/30 03:34:57;;;;;;;;;;;;;;;;;;4947184;29;19922;-85
2023/04/30 03:37:23;;;;;;;;;;;;;;;;;;4948277;29;19931;-87
2023/04/30 03:39:49;;;;;;;;;;;;;;;;;;4948310;29;19930;-85
2023/04/30 03:42:15;;;;;;;;;;;;;;;;;;4964045;29;19922;-85
2023/04/30 03:44:41;;;;;;;;;;;;;;;;;;4948342;29;19999;-87
2023/04/30 03:47:07;;;;;;;;;;;;;;;;;;4949592;29;19926;-88
2023/04/30 03:49:33;;;;;;;;;;;;;;;;;;4949974;29;19933;-86
2023/04/30 03:51:59;;;;;;;;;;;;;;;;;;4949484;29;19929;-87
2023/04/30 03:54:25;;;;;;;;;;;;;;;;;;4949961;29;20010;-86
2023/04/30 03:56:55;;;;;;;;;;;;;;;;;;4956148;29;19930;-86
2023/04/30 03:59:21;;;;;;;;;;;;;;;;;;4967434;28;19907;-87
2023/04/30 04:04:23;;;;;;;;;;;;;;;;;;5327700;23;19937;-95
2023/04/30 04:09:25;;;;;;;;;;;;;;;;;;4977144;23;19990;-93
2023/04/30 04:11:50;;;;;;;;;;;;;;;;;;4954423;29;20384;-91
2023/04/30 04:27:13;;;;;;;;;;;;;;;;;;4964010;28;20079;-87
2023/04/30 04:37:27;;;;;;;;;;;;;;;;;;5020785;23;19982;-93
2023/04/30 04:39:53;;;;;;;;;;;;;;;;;;4954095;29;19933;-93
2023/04/30 04:50:06;;;;;;;;;;;;;;;;;;4985330;23;19937;-91
2023/04/30 04:55:08;;;;;;;;;;;;;;;;;;5840205;23;20182;-93
2023/04/30 05:15:43;;;;;;;;;;;;;;;;;;4990088;28;19933;-93
2023/04/30 05:25:56;;;;;;;;;;;;;;;;;;5787283;23;21064;-93
2023/04/30 05:28:22;;;;;;;;;;;;;;;;;;4956163;28;20016;-92
2023/04/30 05:30:48;;;;;;;;;;;;;;;;;;4959293;29;19928;-92
2023/04/30 05:33:14;;;;;;;;;;;;;;;;;;4961313;29;19927;-94
2023/04/30 05:38:16;;;;;;;;;;;;;;;;;;5288764;23;19997;-91
2023/04/30 05:43:18;;;;;;;;;;;;;;;;;;5046266;23;19926;-95
2023/04/30 06:16:54;;;;;;;;;;;;;;;;;;4972488;28;19933;-94
2023/04/30 06:32:19;;;;;;;;;;;;;;;;;;5265845;23;19959;-85
2023/04/30 06:34:45;;;;;;;;;;;;;;;;;;4950419;29;19930;-85
2023/04/30 06:37:11;;;;;;;;;;;;;;;;;;4957490;29;19922;-86
2023/04/30 06:39:37;;;;;;;;;;;;;;;;;;4949842;29;20369;-86
2023/04/30 06:42:03;;;;;;;;;;;;;;;;;;4949263;29;19954;-87
2023/04/30 06:44:31;;;;;;;;;;;;;;;;;;4962326;29;19929;-85
2023/04/30 06:46:58;;;;;;;;;;;;;;;;;;4963399;29;19917;-85
2023/04/30 06:49:27;;;;;;;;;;;;;;;;;;4970246;28;19994;-87
2023/04/30 06:51:55;;;;;;;;;;;;;;;;;;4949415;29;19965;-87
2023/04/30 06:54:22;;;;;;;;;;;;;;;;;;4948684;29;19923;-86
2023/04/30 06:56:56;;;;;;;;;;;;;;;;;;4956915;29;19923;-85
2023/04/30 06:59:23;;;;;;;;;;;;;;;;;;4948596;29;20340;-86
2023/04/30 07:01:49;;;;;;;;;;;;;;;;;;4971274;28;19990;-83
2023/04/30 07:04:23;;;;;;;;;;;;;;;;;;4976674;28;19914;-85
2023/04/30 07:06:54;;;;;;;;;;;;;;;;;;4962795;28;19926;-85
2023/04/30 07:09:20;;;;;;;;;;;;;;;;;;4947642;29;19927;-85
2023/04/30 07:11:46;;;;;;;;;;;;;;;;;;4961879;29;19922;-85
2023/04/30 07:14:12;;;;;;;;;;;;;;;;;;4965056;28;19966;-86
2023/04/30 07:16:38;;;;;;;;;;;;;;;;;;4943555;29;19990;-93
2023/04/30 07:22:05;;;;;;;;;;;;;;;;;;5447985;23;19911;-84
2023/04/30 07:27:27;;;;;;;;;;;;;;;;;;4979611;28;19945;-84
2023/04/30 07:29:53;;;;;;;;;;;;;;;;;;4981364;28;19922;-84
2023/04/30 07:32:19;;;;;;;;;;;;;;;;;;4978662;28;19977;-84
2023/04/30 07:34:45;;;;;;;;;;;;;;;;;;4947439;29;19923;-85
2023/04/30 07:37:11;;;;;;;;;;;;;;;;;;4964542;29;20281;-86
2023/04/30 07:39:40;;;;;;;;;;;;;;;;;;4951040;29;19927;-86
2023/04/30 07:42:23;;;;;;;;;;;;;;;;;;4977276;28;19923;-87
2023/04/30 07:55:28;;;;;;;;;;;;;;;;;;5603480;23;20724;-93
2023/04/30 07:57:58;;;;;;;;;;;;;;;;;;4971543;28;19933;-92
2023/04/30 08:03:00;;;;;;;;;;;;;;;;;;5182736;23;19994;-92
2023/04/30 08:05:26;;;;;;;;;;;;;;;;;;4986819;28;19984;-93
2023/04/30 08:07:52;;;;;;;;;;;;;;;;;;4975309;28;19929;-93
2023/04/30 08:25:53;;;;;;;;;;;;;;;;;;5792595;23;19934;-91
2023/04/30 08:28:19;;;;;;;;;;;;;;;;;;5253632;23;20003;-92
2023/04/30 08:30:46;;;;;;;;;;;;;;;;;;4948655;29;19911;-92
2023/04/30 08:38:33;;;;;;;;;;;;;;;;;;4962482;29;20009;-86
2023/04/30 08:41:02;;;;;;;;;;;;;;;;;;4953822;29;19923;-85
2023/04/30 08:43:28;;;;;;;;;;;;;;;;;;4947804;29;20237;-83
2023/04/30 08:56:22;;;;;;;;;;;;;;;;;;5637369;23;19937;-86
2023/04/30 08:58:47;;;;;;;;;;;;;;;;;;4975771;28;19923;-86
2023/04/30 09:01:13;;;;;;;;;;;;;;;;;;4970555;28;20296;-86
2023/04/30 09:03:39;;;;;;;;;;;;;;;;;;4960167;28;19923;-86
2023/04/30 09:06:07;;;;;;;;;;;;;;;;;;4980544;28;19923;-86
2023/04/30 09:08:33;;;;;;;;;;;;;;;;;;4970328;28;19973;-85
2023/04/30 09:11:02;;;;;;;;;;;;;;;;;;4970042;28;19917;-84
2023/04/30 09:13:47;;;;;;;;;;;;;;;;;;4975579;28;20088;-84
2023/04/30 09:16:14;;;;;;;;;;;;;;;;;;4972465;28;19923;-86
2023/04/30 09:18:40;;;;;;;;;;;;;;;;;;4969377;28;19922;-85
2023/04/30 09:21:07;;;;;;;;;;;;;;;;;;4958956;29;19980;-85
2023/04/30 09:23:33;;;;;;;;;;;;;;;;;;4963340;28;19986;-86
2023/04/30 09:26:02;;;;;;;;;;;;;;;;;;4956699;28;19962;-85
2023/04/30 09:28:28;;;;;;;;;;;;;;;;;;4965080;28;19937;-86
2023/04/30 09:30:55;;;;;;;;;;;;;;;;;;4971285;28;19927;-86
2023/04/30 09:33:21;;;;;;;;;;;;;;;;;;4978018;28;19927;-85
2023/04/30 09:35:48;;;;;;;;;;;;;;;;;;4957914;28;19959;-86
2023/04/30 09:38:14;;;;;;;;;;;;;;;;;;4967880;28;20021;-83
2023/04/30 09:40:44;;;;;;;;;;;;;;;;;;5315878;23;19927;-85
2023/04/30 09:43:14;;;;;;;;;;;;;;;;;;4959928;29;19950;-86
2023/04/30 09:45:47;;;;;;;;;;;;;;;;;;5420284;23;19949;-85
2023/04/30 09:48:13;;;;;;;;;;;;;;;;;;4949326;29;19957;-86
2023/04/30 09:50:41;;;;;;;;;;;;;;;;;;4948760;29;19929;-84
2023/04/30 09:53:08;;;;;;;;;;;;;;;;;;4964834;28;19933;-86
2023/04/30 09:55:35;;;;;;;;;;;;;;;;;;4979765;28;19926;-84
2023/04/30 09:58:04;;;;;;;;;;;;;;;;;;4973832;29;20299;-85
2023/04/30 10:00:31;;;;;;;;;;;;;;;;;;4950944;29;19966;-85
2023/04/30 10:02:57;;;;;;;;;;;;;;;;;;4939591;29;19922;-84
2023/04/30 10:05:23;;;;;;;;;;;;;;;;;;4941251;29;19976;-85
2023/04/30 10:07:49;;;;;;;;;;;;;;;;;;4941455;29;20009;-85
2023/04/30 10:10:15;;;;;;;;;;;;;;;;;;4940852;29;19923;-86
2023/04/30 10:12:41;;;;;;;;;;;;;;;;;;4957633;28;19927;-85
2023/04/30 10:15:07;;;;;;;;;;;;;;;;;;4943715;29;19966;-86
2023/04/30 10:17:33;;;;;;;;;;;;;;;;;;4947649;29;19951;-84
2023/04/30 10:19:59;;;;;;;;;;;;;;;;;;4956554;29;20356;-85
2023/04/30 10:22:25;;;;;;;;;;;;;;;;;;4945784;29;19977;-85
2023/04/30 10:24:51;;;;;;;;;;;;;;;;;;4945080;29;20049;-84
2023/04/30 10:27:17;;;;;;;;;;;;;;;;;;4942221;29;19926;-84
2023/04/30 10:29:43;;;;;;;;;;;;;;;;;;4956261;29;19982;-85
2023/04/30 10:32:09;;;;;;;;;;;;;;;;;;4943990;29;20008;-86
2023/04/30 10:34:35;;;;;;;;;;;;;;;;;;4941567;29;20289;-85
2023/04/30 10:37:01;;;;;;;;;;;;;;;;;;4940265;29;19985;-85
2023/04/30 10:39:27;;;;;;;;;;;;;;;;;;4949152;29;19923;-86
2023/04/30 10:41:53;;;;;;;;;;;;;;;;;;4937892;29;19931;-85
2023/04/30 10:44:19;;;;;;;;;;;;;;;;;;4944807;29;19923;-85
2023/04/30 10:46:46;;;;;;;;;;;;;;;;;;4946867;29;19923;-87
2023/04/30 10:49:16;;;;;;;;;;;;;;;;;;5069400;23;19931;-85
2023/04/30 10:51:42;;;;;;;;;;;;;;;;;;4963934;28;19926;-86
2023/04/30 10:54:08;;;;;;;;;;;;;;;;;;4971893;28;19927;-86
2023/04/30 10:56:35;;;;;;;;;;;;;;;;;;4969068;28;19930;-85
2023/04/30 10:59:01;;;;;;;;;;;;;;;;;;5036677;23;20355;-85
2023/04/30 11:01:27;;;;;;;;;;;;;;;;;;4973912;28;19957;-85
2023/04/30 11:03:53;;;;;;;;;;;;;;;;;;4965231;28;19929;-85
2023/04/30 11:08:55;;;;;;;;;;;;;;;;;;5340633;23;19930;-84
2023/04/30 11:11:21;;;;;;;;;;;;;;;;;;4987873;28;19984;-86
2023/04/30 11:13:47;;;;;;;;;;;;;;;;;;4988437;28;19937;-87
2023/04/30 11:16:13;;;;;;;;;;;;;;;;;;4970062;28;19922;-85
2023/04/30 11:18:39;;;;;;;;;;;;;;;;;;4968555;28;19929;-87
2023/04/30 11:21:05;;;;;;;;;;;;;;;;;;4969957;28;19922;-87
2023/04/30 11:23:31;;;;;;;;;;;;;;;;;;4986018;28;19937;-85
2023/04/30 11:26:00;;;;;;;;;;;;;;;;;;4970183;28;20392;-86
2023/04/30 11:28:34;;;;;;;;;;;;;;;;;;5005807;28;19933;-85
2023/04/30 11:31:02;;;;;;;;;;;;;;;;;;4980453;28;19910;-86
2023/04/30 11:33:40;;;;;;;;;;;;;;;;;;5005934;28;19913;-86
2023/04/30 11:36:06;;;;;;;;;;;;;;;;;;5127926;23;19935;-86
2023/04/30 11:38:35;;;;;;;;;;;;;;;;;;4968331;28;19926;-88
2023/04/30 11:41:03;;;;;;;;;;;;;;;;;;4984870;28;19922;-87
2023/04/30 11:43:30;;;;;;;;;;;;;;;;;;4987306;28;19933;-86
2023/04/30 11:45:56;;;;;;;;;;;;;;;;;;4969451;28;19977;-86
2023/04/30 11:48:22;;;;;;;;;;;;;;;;;;4953036;28;19934;-86
2023/04/30 11:50:48;;;;;;;;;;;;;;;;;;4957744;28;19929;-86
2023/04/30 11:53:15;;;;;;;;;;;;;;;;;;4980265;28;19934;-86
2023/04/30 11:55:41;;;;;;;;;;;;;;;;;;4955282;29;19922;-88
2023/04/30 12:00:43;;;;;;;;;;;;;;;;;;5498020;23;19926;-86
2023/04/30 12:03:23;;;;;;;;;;;;;;;;;;4998402;28;19927;-86
2023/04/30 12:05:49;;;;;;;;;;;;;;;;;;4980499;28;19922;-84
2023/04/30 12:13:25;;;;;;;;;;;;;;;;;;4961173;28;19937;-87
2023/04/30 12:15:51;;;;;;;;;;;;;;;;;;4945500;29;19963;-86
2023/04/30 12:18:17;;;;;;;;;;;;;;;;;;4946356;29;19931;-85
2023/04/30 12:20:43;;;;;;;;;;;;;;;;;;4946234;28;21012;-86
2023/04/30 12:23:09;;;;;;;;;;;;;;;;;;4946106;28;19922;-85
2023/04/30 12:25:36;;;;;;;;;;;;;;;;;;4947597;29;19923;-86
2023/04/30 12:28:03;;;;;;;;;;;;;;;;;;4947689;29;19989;-86
2023/04/30 12:35:39;;;;;;;;;;;;;;;;;;4959217;28;19969;-86
2023/04/30 12:38:05;;;;;;;;;;;;;;;;;;4948700;29;19945;-86
2023/04/30 12:40:30;;;;;;;;;;;;;;;;;;4947545;29;19930;-86
2023/04/30 12:46:01;;;;;;;;;;;;;;;;;;5284521;23;20021;-87
2023/04/30 12:48:27;;;;;;;;;;;;;;;;;;4968251;28;19932;-88
2023/04/30 12:50:53;;;;;;;;;;;;;;;;;;4955142;28;20013;-87
2023/04/30 12:53:20;;;;;;;;;;;;;;;;;;4953334;28;20001;-88
2023/04/30 12:55:46;;;;;;;;;;;;;;;;;;4957125;29;19934;-87
2023/04/30 12:58:12;;;;;;;;;;;;;;;;;;4953582;28;19923;-86
2023/04/30 13:00:38;;;;;;;;;;;;;;;;;;4958099;29;19927;-87
2023/04/30 13:03:05;;;;;;;;;;;;;;;;;;4965079;28;19937;-87
2023/04/30 13:05:30;;;;;;;;;;;;;;;;;;4968254;28;20353;-88
2023/04/30 13:07:56;;;;;;;;;;;;;;;;;;4952868;28;19934;-86
2023/04/30 13:10:24;;;;;;;;;;;;;;;;;;4952773;29;19922;-87
2023/04/30 13:12:50;;;;;;;;;;;;;;;;;;4957414;29;19982;-88
2023/04/30 13:15:25;;;;;;;;;;;;;;;;;;4951255;28;19929;-86
2023/04/30 13:17:54;;;;;;;;;;;;;;;;;;5666527;23;20001;-88
2023/04/30 13:20:25;;;;;;;;;;;;;;;;;;4965436;28;19989;-88
2023/04/30 13:23:02;;;;;;;;;;;;;;;;;;5278221;23;19933;-87
2023/04/30 13:25:28;;;;;;;;;;;;;;;;;;4966115;28;19949;-87
2023/04/30 13:27:54;;;;;;;;;;;;;;;;;;4964261;28;19938;-87
2023/04/30 13:30:23;;;;;;;;;;;;;;;;;;4971277;28;19980;-88
2023/04/30 13:32:53;;;;;;;;;;;;;;;;;;4997252;28;19926;-87
2023/04/30 13:35:19;;;;;;;;;;;;;;;;;;4993714;28;19998;-87
2023/04/30 13:37:57;;;;;;;;;;;;;;;;;;4977571;28;19929;-85
2023/04/30 13:40:24;;;;;;;;;;;;;;;;;;4968737;28;19961;-86
2023/04/30 13:43:06;;;;;;;;;;;;;;;;;;4978071;28;19950;-86
2023/04/30 13:45:33;;;;;;;;;;;;;;;;;;4974599;28;19928;-86
2023/04/30 13:50:33;;;;;;;;;;;;;;;;;;4965914;28;19926;-87
2023/04/30 13:52:59;;;;;;;;;;;;;;;;;;4956571;29;19931;-88
2023/04/30 13:55:25;;;;;;;;;;;;;;;;;;4968046;28;19922;-87
2023/04/30 13:57:51;;;;;;;;;;;;;;;;;;4949166;29;19922;-85
2023/04/30 14:00:18;;;;;;;;;;;;;;;;;;4956412;29;19977;-87
2023/04/30 14:03:11;;;;;;;;;;;;;;;;;;4963563;29;20343;-86
2023/04/30 14:05:38;;;;;;;;;;;;;;;;;;4977169;28;19933;-86
2023/04/30 14:08:04;;;;;;;;;;;;;;;;;;4969954;29;19985;-87
2023/04/30 14:10:29;;;;;;;;;;;;;;;;;;4953121;29;19922;-87
2023/04/30 14:12:55;;;;;;;;;;;;;;;;;;4950654;29;19977;-87
2023/04/30 14:15:21;;;;;;;;;;;;;;;;;;4958758;29;19906;-87
2023/04/30 14:17:47;;;;;;;;;;;;;;;;;;4981053;28;19918;-85
2023/04/30 14:20:22;;;;;;;;;;;;;;;;;;4969970;29;19922;-85
2023/04/30 14:22:48;;;;;;;;;;;;;;;;;;4963717;29;19974;-87
2023/04/30 14:25:14;;;;;;;;;;;;;;;;;;4951258;28;19922;-88
2023/04/30 14:27:40;;;;;;;;;;;;;;;;;;4951632;29;19935;-87
2023/04/30 14:30:08;;;;;;;;;;;;;;;;;;4975497;28;19926;-85
2023/04/30 14:32:34;;;;;;;;;;;;;;;;;;4951314;29;20443;-88
2023/04/30 14:35:00;;;;;;;;;;;;;;;;;;4954983;29;19910;-85
2023/04/30 14:37:26;;;;;;;;;;;;;;;;;;4953458;28;19923;-88
2023/04/30 14:39:53;;;;;;;;;;;;;;;;;;4951875;29;19929;-88
2023/04/30 14:42:18;;;;;;;;;;;;;;;;;;4959799;28;19930;-88
2023/04/30 14:44:45;;;;;;;;;;;;;;;;;;4952849;29;19981;-86
2023/04/30 14:47:12;;;;;;;;;;;;;;;;;;4947824;29;20443;-87
2023/04/30 14:52:14;;;;;;;;;;;;;;;;;;5500761;23;20025;-87
2023/04/30 14:54:40;;;;;;;;;;;;;;;;;;4949894;29;19923;-86
2023/04/30 14:57:06;;;;;;;;;;;;;;;;;;4949164;29;19923;-86
2023/04/30 14:59:33;;;;;;;;;;;;;;;;;;4954094;29;19931;-85
2023/04/30 15:02:08;;;;;;;;;;;;;;;;;;4959682;29;19926;-88
2023/04/30 15:05:09;;;;;;;;;;;;;;;;;;5165229;23;19973;-86
2023/04/30 15:07:35;;;;;;;;;;;;;;;;;;4982768;28;19933;-87
2023/04/30 15:10:08;;;;;;;;;;;;;;;;;;4961911;29;19907;-86
2023/04/30 15:12:40;;;;;;;;;;;;;;;;;;4973510;28;19923;-87
2023/04/30 15:15:07;;;;;;;;;;;;;;;;;;4976359;28;19977;-86
2023/04/30 15:17:36;;;;;;;;;;;;;;;;;;4975072;28;19930;-87
2023/04/30 15:20:17;;;;;;;;;;;;;;;;;;5054212;23;19926;-87
2023/04/30 15:22:47;;;;;;;;;;;;;;;;;;4971754;29;20020;-86
2023/04/30 15:25:17;;;;;;;;;;;;;;;;;;4964677;29;19922;-87
2023/04/30 15:27:43;;;;;;;;;;;;;;;;;;4939949;29;19998;-85
2023/04/30 15:30:09;;;;;;;;;;;;;;;;;;4946296;29;19926;-87
2023/04/30 15:32:42;;;;;;;;;;;;;;;;;;4972244;28;19906;-87
2023/04/30 15:35:09;;;;;;;;;;;;;;;;;;4947313;29;20379;-87
2023/04/30 15:37:44;;;;;;;;;;;;;;;;;;4965318;29;19927;-87
2023/04/30 15:40:14;;;;;;;;;;;;;;;;;;4947190;29;19923;-88
2023/04/30 15:42:48;;;;;;;;;;;;;;;;;;4964449;28;19911;-94
2023/04/30 15:45:19;;;;;;;;;;;;;;;;;;5097247;23;19954;-92
2023/04/30 15:48:08;;;;;;;;;;;;;;;;;;4984146;28;19929;-94
2023/04/30 15:53:13;;;;;;;;;;;;;;;;;;5130011;23;19969;-95
2023/04/30 15:55:42;;;;;;;;;;;;;;;;;;4963714;28;19922;-95
2023/04/30 15:58:08;;;;;;;;;;;;;;;;;;5105229;23;19930;-93
2023/04/30 16:00:34;;;;;;;;;;;;;;;;;;4962705;28;20017;-94
2023/04/30 16:03:00;;;;;;;;;;;;;;;;;;4965543;28;19922;-94
2023/04/30 16:05:26;;;;;;;;;;;;;;;;;;4975242;28;19913;-94
2023/04/30 16:07:53;;;;;;;;;;;;;;;;;;4999650;28;19926;-94
2023/04/30 16:10:43;;;;;;;;;;;;;;;;;;4992428;28;19926;-92
2023/04/30 16:13:09;;;;;;;;;;;;;;;;;;4960897;28;19930;-92
2023/04/30 16:15:35;;;;;;;;;;;;;;;;;;4976656;28;19926;-94
2023/04/30 16:18:10;;;;;;;;;;;;;;;;;;5107301;23;19989;-96
2023/04/30 16:21:12;;;;;;;;;;;;;;;;;;5264412;23;19969;-96
2023/04/30 16:23:46;;;;;;;;;;;;;;;;;;4965639;28;19995;-93
2023/04/30 16:26:12;;;;;;;;;;;;;;;;;;4946829;29;19923;-93
2023/04/30 16:28:38;;;;;;;;;;;;;;;;;;4944278;29;19986;-95
2023/04/30 16:31:04;;;;;;;;;;;;;;;;;;5361599;23;19957;-93
2023/04/30 16:33:33;;;;;;;;;;;;;;;;;;4968204;28;19933;-95
2023/04/30 16:36:22;;;;;;;;;;;;;;;;;;5283685;23;19986;-94
2023/04/30 16:38:48;;;;;;;;;;;;;;;;;;5718940;23;19918;-91
2023/04/30 16:41:14;;;;;;;;;;;;;;;;;;4954426;29;19930;-95
2023/04/30 16:46:13;;;;;;;;;;;;;;;;;;4963413;29;20386;-93
2023/04/30 16:48:39;;;;;;;;;;;;;;;;;;4946226;29;19927;-95
2023/04/30 16:53:41;;;;;;;;;;;;;;;;;;5471387;23;19972;-94
2023/04/30 18:24:26;;;;;;;;;;;;;;;;;;5208789;23;19924;-95
2023/04/30 18:32:02;;;;;;;;;;;;;;;;;;4981843;28;19937;-95
2023/04/30 18:34:28;;;;;;;;;;;;;;;;;;4963614;28;19922;-95
2023/04/30 18:36:54;;;;;;;;;;;;;;;;;;4960196;28;19950;-95
2023/04/30 20:12:49;;;;;;;;;;;;;;;;;;4968822;28;19961;-93
2023/04/30 20:15:15;;;;;;;;;;;;;;;;;;4954106;29;20420;-96
2023/04/30 20:17:42;;;;;;;;;;;;;;;;;;4951955;29;19907;-96
2023/04/30 20:28:27;;;;;;;;;;;;;;;;;;5293788;23;19933;-94
2023/04/30 20:30:52;;;;;;;;;;;;;;;;;;4955378;29;19965;-92
2023/04/30 20:33:18;;;;;;;;;;;;;;;;;;4954077;29;19937;-94
2023/04/30 20:35:46;;;;;;;;;;;;;;;;;;4955807;28;19966;-91
2023/04/30 21:01:34;;;;;;;;;;;;;;;;;;5533397;23;19975;-95
2023/04/30 21:04:01;;;;;;;;;;;;;;;;;;4952854;29;19927;-92
2023/04/30 21:11:39;;;;;;;;;;;;;;;;;;6034407;23;20484;-92
2023/04/30 21:32:15;;;;;;;;;;;;;;;;;;6001289;23;19950;-92
2023/04/30 21:34:42;;;;;;;;;;;;;;;;;;4972002;29;19926;-92
2023/04/30 21:37:08;;;;;;;;;;;;;;;;;;4972007;28;19922;-94
2023/04/30 21:39:34;;;;;;;;;;;;;;;;;;4956800;29;19990;-93
2023/04/30 21:42:02;;;;;;;;;;;;;;;;;;5278837;23;20378;-92
2023/04/30 21:44:28;;;;;;;;;;;;;;;;;;4976920;28;19929;-91
2023/04/30 21:54:42;;;;;;;;;;;;;;;;;;5054474;23;20002;-93
2023/04/30 21:57:07;;;;;;;;;;;;;;;;;;4957953;29;19922;-93
2023/04/30 22:45:47;;;;;;;;;;;;;;;;;;4966571;28;19933;-86
2023/04/30 22:48:14;;;;;;;;;;;;;;;;;;4954476;28;19937;-86
2023/04/30 22:50:40;;;;;;;;;;;;;;;;;;4951031;29;19922;-85
2023/04/30 22:53:06;;;;;;;;;;;;;;;;;;4965423;28;19929;-87
2023/04/30 22:55:33;;;;;;;;;;;;;;;;;;4950358;29;19930;-86
2023/04/30 22:58:00;;;;;;;;;;;;;;;;;;4949095;29;19950;-86
2023/04/30 23:08:13;;;;;;;;;;;;;;;;;;5670952;23;19933;-94
2023/04/30 23:13:31;;;;;;;;;;;;;;;;;;5297464;23;19931;-92
2023/04/30 23:15:58;;;;;;;;;;;;;;;;;;4954572;28;20834;-91
2023/04/30 23:26:11;;;;;;;;;;;;;;;;;;5252188;23;19931;-93
2023/04/30 23:33:48;;;;;;;;;;;;;;;;;;5759233;23;19914;-93
2023/04/30 23:36:14;;;;;;;;;;;;;;;;;;4953003;29;19934;-94
2023/04/30 23:46:28;;;;;;;;;;;;;;;;;;5358792;23;19997;-83
2023/04/30 23:48:55;;;;;;;;;;;;;;;;;;4953703;29;19930;-85
2023/04/30 23:59:11;;;;;;;;;;;;;;;;;;5537309;23;20032;-91
